Winslow, Arizona
Current Conditions -  °F | °C
As of 1:56 PM on Friday 28 Nov 2014 (Local Time) from KINW Reporting Station
Clear Clear  
Wind Chill: 67°   Ceiling: Unl
Heat Index: 67°   Visibility: 10mi
Dew Point: 15°   Wind: 0mph
Humidity: 14%   Direction: NA
Pressure: 30.09"   Gusts: NA
Location:  35.02°N, 110.69°W
Report Text: KINW 282056Z AUTO 00000KT 10SM CLR 19/M09 A3009 RMK AO2 SLP170 T01941094 56038
Loading
Personal Weather Stations






























Interactive Weather Map New forecast layout! Learn more

10-Day Weather Forecast

Advertisements
Track Severe Weather on mobile